createdAt,value
2019-05-30T00:00:24.769Z,15.96
2019-05-30T00:01:33.823Z,15.97
2019-05-30T00:02:43.012Z,15.95
2019-05-30T00:03:50.986Z,15.96
2019-05-30T00:05:00.300Z,15.95
2019-05-30T00:06:08.673Z,15.94
2019-05-30T00:07:17.443Z,15.92
2019-05-30T00:08:25.741Z,15.92
2019-05-30T00:09:34.641Z,15.94
2019-05-30T00:10:42.791Z,15.96
2019-05-30T00:11:51.571Z,15.99
2019-05-30T00:13:00.712Z,15.97
2019-05-30T00:14:09.693Z,15.93
2019-05-30T00:15:17.975Z,15.94
2019-05-30T00:16:27.197Z,15.93
2019-05-30T00:17:35.035Z,15.91
2019-05-30T00:18:44.340Z,15.90
2019-05-30T00:19:52.484Z,15.87
2019-05-30T00:21:01.244Z,15.87
2019-05-30T00:22:09.489Z,15.87
2019-05-30T00:23:18.067Z,15.89
2019-05-30T00:24:26.601Z,15.90
2019-05-30T00:25:35.796Z,15.91
2019-05-30T00:26:43.827Z,15.90
2019-05-30T00:27:52.631Z,15.90
2019-05-30T00:29:00.574Z,15.92
2019-05-30T00:30:23.888Z,15.93
2019-05-30T00:31:19.498Z,15.93
2019-05-30T00:32:28.723Z,15.93
2019-05-30T00:33:36.702Z,15.91
2019-05-30T00:34:45.566Z,15.88
2019-05-30T00:35:53.459Z,15.86
2019-05-30T00:37:02.375Z,15.86
2019-05-30T00:38:10.240Z,15.86
2019-05-30T00:39:18.990Z,15.84
2019-05-30T00:40:28.163Z,15.84
2019-05-30T00:41:37.783Z,15.87
2019-05-30T00:42:45.668Z,15.90
2019-05-30T00:43:55.813Z,15.91
2019-05-30T00:45:18.616Z,15.89
2019-05-30T00:46:15.253Z,15.86
2019-05-30T00:47:23.130Z,15.84
2019-05-30T00:48:32.259Z,15.84
2019-05-30T00:49:40.278Z,15.86
2019-05-30T00:50:49.008Z,15.80
2019-05-30T00:51:58.344Z,15.76
2019-05-30T00:53:07.578Z,15.74
2019-05-30T00:54:15.610Z,15.76
2019-05-30T00:55:24.576Z,15.74
2019-05-30T00:56:32.760Z,15.76
2019-05-30T00:57:41.840Z,15.75
2019-05-30T00:58:50.067Z,15.75
2019-05-30T00:59:58.990Z,15.73
2019-05-30T01:01:07.222Z,15.73
2019-05-30T01:02:16.308Z,15.73
2019-05-30T01:03:24.657Z,15.74
2019-05-30T01:04:33.874Z,15.71
2019-05-30T01:05:41.904Z,15.68
2019-05-30T01:06:51.387Z,15.68
2019-05-30T01:07:59.257Z,15.66
2019-05-30T01:09:09.270Z,15.67
2019-05-30T01:10:19.014Z,15.66
2019-05-30T01:11:27.925Z,15.61
2019-05-30T01:12:36.218Z,15.60
2019-05-30T01:13:45.341Z,15.59
2019-05-30T01:14:53.510Z,15.60
2019-05-30T01:16:03.222Z,15.58
2019-05-30T01:17:11.471Z,15.57
2019-05-30T01:18:20.291Z,15.56
2019-05-30T01:19:28.489Z,15.52
2019-05-30T01:20:37.169Z,15.52
2019-05-30T01:21:45.623Z,15.54
2019-05-30T01:22:54.335Z,15.55
2019-05-30T01:24:03.529Z,15.54
2019-05-30T01:25:13.088Z,15.55
2019-05-30T01:26:21.267Z,15.54
2019-05-30T01:27:30.194Z,15.52
2019-05-30T01:28:38.328Z,15.51
2019-05-30T01:29:48.835Z,15.51
2019-05-30T01:31:03.076Z,15.51
2019-05-30T01:32:24.700Z,15.49
2019-05-30T01:33:33.621Z,15.51
2019-05-30T01:34:42.525Z,15.47
2019-05-30T01:35:50.624Z,15.45
2019-05-30T01:36:59.856Z,15.47
2019-05-30T01:38:08.163Z,15.49
2019-05-30T01:39:16.955Z,15.47
2019-05-30T01:40:24.903Z,15.48
2019-05-30T01:41:34.490Z,15.48
2019-05-30T01:42:42.850Z,15.49
2019-05-30T01:43:51.928Z,15.48
2019-05-30T01:45:00.268Z,15.47
2019-05-30T01:46:09.236Z,15.46
2019-05-30T01:47:17.246Z,15.43
2019-05-30T01:48:26.701Z,15.44
2019-05-30T01:49:34.778Z,15.44
2019-05-30T01:50:43.660Z,15.45
2019-05-30T01:51:51.868Z,15.44
2019-05-30T01:53:00.927Z,15.42
2019-05-30T01:54:08.926Z,15.41
2019-05-30T01:55:18.533Z,15.41
2019-05-30T01:56:26.705Z,15.41
2019-05-30T01:57:35.885Z,15.41
2019-05-30T01:58:44.017Z,15.41
2019-05-30T01:59:52.949Z,15.39
2019-05-30T02:01:16.858Z,15.35
2019-05-30T02:02:11.391Z,15.33
2019-05-30T02:03:19.644Z,15.34
2019-05-30T02:04:28.710Z,15.31
2019-05-30T02:05:37.657Z,15.30
2019-05-30T02:06:46.525Z,15.33
2019-05-30T02:07:54.630Z,15.35
2019-05-30T02:09:03.855Z,15.36
2019-05-30T02:10:12.777Z,15.36
2019-05-30T02:11:21.605Z,15.38
2019-05-30T02:12:29.455Z,15.37
2019-05-30T02:13:38.819Z,15.35
2019-05-30T02:14:46.885Z,15.35
2019-05-30T02:15:55.512Z,15.37
2019-05-30T02:17:03.701Z,15.41
2019-05-30T02:18:12.660Z,15.38
2019-05-30T02:19:20.709Z,15.36
2019-05-30T02:20:29.565Z,15.32
2019-05-30T02:21:37.950Z,15.26
2019-05-30T02:22:47.224Z,15.31
2019-05-30T02:23:55.315Z,15.30
2019-05-30T02:25:04.284Z,15.27
2019-05-30T02:26:12.280Z,15.27
2019-05-30T02:27:20.966Z,15.28
2019-05-30T02:28:29.168Z,15.28
2019-05-30T02:29:38.007Z,15.27
2019-05-30T02:30:46.255Z,15.24
2019-05-30T02:31:55.116Z,15.22
2019-05-30T02:33:05.119Z,15.21
2019-05-30T02:34:13.954Z,15.17
2019-05-30T02:35:22.254Z,15.16
2019-05-30T02:36:31.328Z,15.15
2019-05-30T02:37:39.556Z,15.16
2019-05-30T02:38:48.309Z,15.14
2019-05-30T02:40:00.178Z,15.14
2019-05-30T02:41:08.129Z,15.14
2019-05-30T02:42:17.053Z,15.10
2019-05-30T02:43:25.982Z,15.07
2019-05-30T02:44:34.014Z,15.03
2019-05-30T02:45:45.989Z,15.02
2019-05-30T02:46:55.738Z,15.01
2019-05-30T02:48:05.452Z,15.00
2019-05-30T02:49:14.199Z,15.02
2019-05-30T02:50:23.801Z,15.08
2019-05-30T02:51:31.824Z,15.10
2019-05-30T02:52:40.949Z,15.09
2019-05-30T02:53:49.138Z,15.07
2019-05-30T02:54:58.051Z,15.04
2019-05-30T02:56:07.777Z,15.03
2019-05-30T02:57:16.396Z,15.06
2019-05-30T02:58:24.310Z,15.07
2019-05-30T02:59:33.534Z,15.04
2019-05-30T03:00:42.424Z,15.04
2019-05-30T03:02:01.192Z,15.02
2019-05-30T03:03:01.863Z,14.99
2019-05-30T03:04:12.934Z,14.99
2019-05-30T03:05:21.010Z,14.99
2019-05-30T03:06:29.935Z,14.97
2019-05-30T03:07:38.551Z,14.99
2019-05-30T03:08:47.757Z,14.97
2019-05-30T03:09:56.394Z,14.96
2019-05-30T03:11:09.383Z,14.94
2019-05-30T03:12:15.393Z,14.92
2019-05-30T03:13:24.593Z,14.93
2019-05-30T03:14:33.018Z,14.94
2019-05-30T03:15:42.558Z,14.98
2019-05-30T03:16:50.552Z,14.96
2019-05-30T03:17:59.418Z,14.90
2019-05-30T03:19:08.506Z,14.85
2019-05-30T03:20:23.249Z,14.84
2019-05-30T03:21:29.551Z,14.86
2019-05-30T03:22:38.718Z,14.87
2019-05-30T03:23:47.092Z,14.90
2019-05-30T03:24:56.127Z,14.88
2019-05-30T03:26:04.839Z,14.87
2019-05-30T03:27:14.561Z,14.82
2019-05-30T03:28:22.796Z,14.81
2019-05-30T03:29:31.570Z,14.82
2019-05-30T03:30:40.155Z,14.86
2019-05-30T03:31:50.680Z,14.87
2019-05-30T03:33:07.131Z,14.87
2019-05-30T03:34:18.035Z,14.85
2019-05-30T03:35:28.249Z,14.85
2019-05-30T03:36:31.809Z,14.79
2019-05-30T03:37:40.303Z,14.77
2019-05-30T03:38:49.497Z,14.75
2019-05-30T03:39:57.555Z,14.72
2019-05-30T03:41:09.114Z,14.62
2019-05-30T03:42:16.980Z,14.61
2019-05-30T03:43:26.051Z,14.61
2019-05-30T03:44:34.343Z,14.60
2019-05-30T03:45:45.567Z,14.60
2019-05-30T03:46:58.085Z,14.62
2019-05-30T03:48:13.629Z,14.61
2019-05-30T03:49:25.644Z,14.60
2019-05-30T03:50:37.205Z,14.59
2019-05-30T03:51:49.500Z,14.59
2019-05-30T03:52:58.853Z,14.57
2019-05-30T03:54:09.881Z,14.59
2019-05-30T03:55:21.985Z,14.60
2019-05-30T03:56:40.236Z,14.62
2019-05-30T03:58:12.776Z,14.60
2019-05-30T03:59:25.702Z,14.55
2019-05-30T04:00:50.998Z,14.53
2019-05-30T04:02:20.504Z,14.50
2019-05-30T04:03:57.621Z,14.48
2019-05-30T04:05:24.797Z,14.49
2019-05-30T04:06:41.691Z,14.50
2019-05-30T04:07:54.172Z,14.44
2019-05-30T04:09:21.270Z,14.44
2019-05-30T04:10:27.519Z,14.43
2019-05-30T04:11:40.808Z,14.42
2019-05-30T04:13:05.438Z,14.45
2019-05-30T04:14:19.368Z,14.45
2019-05-30T04:15:35.819Z,14.47
2019-05-30T04:16:45.635Z,14.47
2019-05-30T04:17:53.735Z,14.47
2019-05-30T04:19:02.647Z,14.48
2019-05-30T04:20:11.583Z,14.46
2019-05-30T04:21:21.763Z,14.44
2019-05-30T04:22:31.446Z,14.46
2019-05-30T04:23:40.070Z,14.48
2019-05-30T04:24:48.584Z,14.51
2019-05-30T04:26:00.323Z,14.55
2019-05-30T04:27:08.101Z,14.54
2019-05-30T04:28:18.840Z,14.53
2019-05-30T04:29:27.334Z,14.52
2019-05-30T04:30:36.646Z,14.56
2019-05-30T04:31:44.968Z,14.60
2019-05-30T04:32:54.121Z,14.56
2019-05-30T04:34:02.354Z,14.52
2019-05-30T04:35:12.349Z,14.50
2019-05-30T04:36:20.370Z,14.51
2019-05-30T04:37:29.175Z,14.46
2019-05-30T04:38:37.065Z,14.47
2019-05-30T04:39:45.819Z,14.45
2019-05-30T04:40:53.761Z,14.47
2019-05-30T04:42:02.617Z,14.50
2019-05-30T04:43:11.082Z,14.49
2019-05-30T04:44:20.630Z,14.48
2019-05-30T04:45:28.669Z,14.45
2019-05-30T04:46:37.373Z,14.48
2019-05-30T04:47:45.732Z,14.48
2019-05-30T04:48:55.080Z,14.49
2019-05-30T04:50:03.604Z,14.50
2019-05-30T04:51:14.436Z,14.52
2019-05-30T04:52:24.759Z,14.52
2019-05-30T04:53:32.771Z,14.55
2019-05-30T04:54:41.004Z,14.53
2019-05-30T04:55:50.188Z,14.53
2019-05-30T04:56:58.622Z,14.54
2019-05-30T04:58:07.730Z,14.47
2019-05-30T04:59:17.563Z,14.41
2019-05-30T05:00:26.767Z,14.42
2019-05-30T05:01:34.948Z,14.39
2019-05-30T05:02:43.689Z,14.41
2019-05-30T05:03:52.235Z,14.42
2019-05-30T05:05:01.107Z,14.45
2019-05-30T05:06:09.097Z,14.47
2019-05-30T05:07:18.011Z,14.47
2019-05-30T05:08:26.098Z,14.48
2019-05-30T05:09:35.045Z,14.44
2019-05-30T05:10:43.588Z,14.44
2019-05-30T05:11:53.707Z,14.46
2019-05-30T05:13:01.947Z,14.40
2019-05-30T05:14:10.216Z,14.34
2019-05-30T05:15:18.784Z,14.31
2019-05-30T05:16:35.350Z,14.33
2019-05-30T05:17:37.117Z,14.28
2019-05-30T05:18:46.511Z,14.26
2019-05-30T05:19:54.483Z,14.28
2019-05-30T05:21:03.277Z,14.30
2019-05-30T05:22:11.402Z,14.32
2019-05-30T05:23:19.824Z,14.34
2019-05-30T05:24:27.986Z,14.30
2019-05-30T05:25:36.316Z,14.30
2019-05-30T05:26:44.635Z,14.29
2019-05-30T05:27:53.869Z,14.29
2019-05-30T05:29:02.053Z,14.33
2019-05-30T05:30:13.924Z,14.38
2019-05-30T05:31:22.462Z,14.42
2019-05-30T05:32:31.411Z,14.45
2019-05-30T05:33:55.473Z,14.48
2019-05-30T05:34:52.152Z,14.47
2019-05-30T05:36:00.276Z,14.45
2019-05-30T05:37:09.361Z,14.44
2019-05-30T05:38:18.130Z,14.49
2019-05-30T05:39:27.052Z,14.49
2019-05-30T05:40:35.404Z,14.52
2019-05-30T05:41:44.003Z,14.51
2019-05-30T05:42:52.342Z,14.52
2019-05-30T05:44:03.633Z,14.53
2019-05-30T05:45:13.025Z,14.56
2019-05-30T05:46:22.575Z,14.59
2019-05-30T05:47:30.814Z,14.62
2019-05-30T05:48:39.960Z,14.65
2019-05-30T05:49:48.674Z,14.65
2019-05-30T05:50:57.910Z,14.66
2019-05-30T05:52:06.296Z,14.64
2019-05-30T05:53:14.926Z,14.64
2019-05-30T05:54:23.033Z,14.60
2019-05-30T05:55:32.061Z,14.63
2019-05-30T05:56:39.917Z,14.62
2019-05-30T05:57:49.347Z,14.64
2019-05-30T05:58:57.270Z,14.65
2019-05-30T06:00:09.457Z,14.66
2019-05-30T06:01:19.254Z,14.68
2019-05-30T06:02:28.501Z,14.75
2019-05-30T06:03:36.775Z,14.74
2019-05-30T06:04:45.703Z,14.73
2019-05-30T06:05:54.083Z,14.68
2019-05-30T06:07:03.040Z,14.70
2019-05-30T06:08:10.952Z,14.69
2019-05-30T06:09:20.579Z,14.67
2019-05-30T06:10:28.954Z,14.66
2019-05-30T06:11:37.668Z,14.69
2019-05-30T06:12:45.724Z,14.73
2019-05-30T06:13:54.769Z,14.78
2019-05-30T06:15:03.225Z,14.72
2019-05-30T06:16:12.084Z,14.78
2019-05-30T06:17:21.142Z,14.85
2019-05-30T06:18:30.040Z,14.86
2019-05-30T06:19:46.606Z,14.84
2019-05-30T06:20:48.913Z,14.90
2019-05-30T06:21:57.458Z,14.93
2019-05-30T06:23:06.325Z,14.95
2019-05-30T06:24:14.328Z,14.97
2019-05-30T06:25:25.228Z,14.98
2019-05-30T06:26:33.282Z,14.96
2019-05-30T06:27:42.602Z,14.92
2019-05-30T06:28:51.322Z,14.91
2019-05-30T06:30:00.306Z,14.86
2019-05-30T06:31:08.388Z,14.81
2019-05-30T06:32:18.564Z,14.89
2019-05-30T06:33:27.196Z,14.97
2019-05-30T06:34:43.141Z,14.97
2019-05-30T06:35:51.477Z,15.01
2019-05-30T06:37:00.323Z,15.05
2019-05-30T06:38:08.513Z,15.10
2019-05-30T06:39:17.603Z,15.14
2019-05-30T06:40:25.632Z,15.11
2019-05-30T06:41:34.447Z,15.13
2019-05-30T06:42:42.492Z,15.09
2019-05-30T06:43:51.522Z,15.07
2019-05-30T06:44:59.902Z,15.07
2019-05-30T06:46:08.425Z,15.10
2019-05-30T06:47:16.565Z,15.12
2019-05-30T06:48:26.835Z,15.12
2019-05-30T06:49:35.013Z,15.15
2019-05-30T06:50:43.804Z,15.13
2019-05-30T06:51:52.410Z,15.09
2019-05-30T06:53:01.740Z,15.11
2019-05-30T06:54:09.725Z,15.14
2019-05-30T06:55:18.643Z,15.17
2019-05-30T06:56:27.470Z,15.20
2019-05-30T06:57:36.464Z,15.22
2019-05-30T06:58:48.748Z,15.21
2019-05-30T06:59:55.019Z,15.18
2019-05-30T07:01:02.948Z,15.18
2019-05-30T07:02:11.403Z,15.24
2019-05-30T07:03:19.314Z,15.24
2019-05-30T07:04:31.086Z,15.27
2019-05-30T07:05:38.556Z,15.24
2019-05-30T07:06:47.937Z,15.18
2019-05-30T07:07:56.118Z,15.18
2019-05-30T07:09:06.321Z,15.15
2019-05-30T07:10:17.262Z,15.16
2019-05-30T07:11:26.778Z,15.16
2019-05-30T07:12:34.986Z,15.14
2019-05-30T07:13:43.951Z,15.15
2019-05-30T07:14:51.943Z,15.17
2019-05-30T07:16:00.642Z,15.18
2019-05-30T07:17:08.775Z,15.18
2019-05-30T07:18:17.638Z,15.21
2019-05-30T07:19:25.764Z,15.25
2019-05-30T07:20:34.770Z,15.24
2019-05-30T07:21:42.714Z,15.24
2019-05-30T07:22:51.488Z,15.27
2019-05-30T07:23:59.430Z,15.28
2019-05-30T07:25:08.917Z,15.25
2019-05-30T07:26:16.747Z,15.21
2019-05-30T07:27:26.196Z,15.23
2019-05-30T07:28:34.443Z,15.25
2019-05-30T07:29:43.341Z,15.26
2019-05-30T07:30:51.393Z,15.26
2019-05-30T07:32:00.944Z,15.26
2019-05-30T07:33:09.089Z,15.23
2019-05-30T07:34:18.199Z,15.22
2019-05-30T07:35:27.899Z,15.20
2019-05-30T07:36:36.950Z,15.23
2019-05-30T07:37:46.633Z,15.27
2019-05-30T07:38:55.503Z,15.27
2019-05-30T07:40:04.732Z,15.23
2019-05-30T07:41:13.735Z,15.22
2019-05-30T07:42:21.733Z,15.21
2019-05-30T07:43:31.826Z,15.21
2019-05-30T07:44:40.179Z,15.24
2019-05-30T07:45:57.700Z,15.22
2019-05-30T07:46:59.029Z,15.16
2019-05-30T07:48:07.449Z,15.16
2019-05-30T07:49:15.587Z,15.13
2019-05-30T07:50:24.705Z,15.15
2019-05-30T07:51:32.790Z,15.18
2019-05-30T07:52:42.245Z,15.19
2019-05-30T07:53:50.576Z,15.19
2019-05-30T07:54:59.392Z,15.18
2019-05-30T07:56:08.164Z,15.07
2019-05-30T07:57:17.488Z,15.12
2019-05-30T07:58:26.941Z,15.15
2019-05-30T07:59:36.205Z,15.14
2019-05-30T08:00:44.494Z,15.14
2019-05-30T08:01:53.296Z,15.11
2019-05-30T08:03:01.671Z,15.13
2019-05-30T08:04:10.545Z,15.15
2019-05-30T08:05:24.202Z,15.18
2019-05-30T08:06:29.533Z,15.14
2019-05-30T08:07:38.967Z,15.15
2019-05-30T08:08:48.330Z,15.11
2019-05-30T08:09:56.744Z,15.11
2019-05-30T08:11:09.593Z,15.09
2019-05-30T08:12:20.014Z,15.10
2019-05-30T08:13:29.695Z,15.14
2019-05-30T08:14:42.278Z,15.14
2019-05-30T08:15:54.103Z,15.11
2019-05-30T08:17:04.205Z,15.11
2019-05-30T08:18:16.805Z,15.10
2019-05-30T08:19:27.764Z,15.08
2019-05-30T08:20:38.259Z,15.09
2019-05-30T08:21:47.811Z,15.00
2019-05-30T08:22:59.041Z,14.98
2019-05-30T08:24:14.405Z,14.98
2019-05-30T08:25:27.892Z,15.01
2019-05-30T08:26:38.487Z,15.02
2019-05-30T08:27:48.156Z,14.98
2019-05-30T08:28:55.958Z,14.93
2019-05-30T08:30:06.118Z,14.97
2019-05-30T08:31:14.012Z,15.00
2019-05-30T08:32:22.876Z,15.06
2019-05-30T08:33:31.466Z,15.09
2019-05-30T08:34:40.592Z,15.10
2019-05-30T08:35:50.220Z,15.09
2019-05-30T08:36:59.201Z,15.08
2019-05-30T08:38:07.351Z,15.09
2019-05-30T08:39:16.327Z,15.10
2019-05-30T08:40:24.600Z,15.11
2019-05-30T08:41:35.223Z,15.10
2019-05-30T08:42:43.463Z,15.07
2019-05-30T08:43:52.377Z,15.12
2019-05-30T08:45:00.383Z,15.18
2019-05-30T08:46:09.310Z,15.16
2019-05-30T08:47:18.630Z,15.22
2019-05-30T08:48:27.479Z,15.25
2019-05-30T08:49:36.210Z,15.30
2019-05-30T08:50:45.084Z,15.28
2019-05-30T08:51:53.077Z,15.31
2019-05-30T08:53:02.031Z,15.29
2019-05-30T08:54:13.469Z,15.29
2019-05-30T08:55:21.149Z,15.30
2019-05-30T08:56:30.304Z,15.27
2019-05-30T08:57:40.764Z,15.26
2019-05-30T08:58:49.322Z,15.34
2019-05-30T08:59:58.551Z,15.40
2019-05-30T09:01:06.796Z,15.35
2019-05-30T09:02:15.650Z,15.41
2019-05-30T09:03:23.741Z,15.41
2019-05-30T09:04:33.186Z,15.39
2019-05-30T09:05:58.219Z,15.38
2019-05-30T09:06:52.086Z,15.39
2019-05-30T09:08:00.694Z,15.38
2019-05-30T09:09:10.177Z,15.42
2019-05-30T09:10:19.511Z,15.41
2019-05-30T09:11:28.524Z,15.42
2019-05-30T09:12:38.644Z,15.41
2019-05-30T09:13:47.485Z,15.45
2019-05-30T09:14:55.520Z,15.49
2019-05-30T09:16:04.490Z,15.50
2019-05-30T09:17:12.973Z,15.54
2019-05-30T09:18:21.916Z,15.61
2019-05-30T09:19:30.305Z,15.67
2019-05-30T09:20:39.808Z,15.73
2019-05-30T09:21:48.246Z,15.71
2019-05-30T09:22:57.140Z,15.70
2019-05-30T09:24:06.185Z,15.73
2019-05-30T09:25:17.428Z,15.82
2019-05-30T09:26:25.764Z,15.88
2019-05-30T09:27:34.621Z,15.88
2019-05-30T09:28:44.112Z,15.88
2019-05-30T09:29:53.113Z,15.91
2019-05-30T09:31:01.244Z,15.90
2019-05-30T09:32:09.977Z,15.93
2019-05-30T09:33:18.032Z,15.91
2019-05-30T09:34:27.037Z,15.90
2019-05-30T09:35:35.337Z,15.97
2019-05-30T09:36:44.706Z,15.95
2019-05-30T09:37:52.874Z,15.93
2019-05-30T09:39:01.765Z,15.86
2019-05-30T09:40:15.509Z,15.91
2019-05-30T09:41:24.205Z,15.94
2019-05-30T09:42:32.728Z,15.86
2019-05-30T09:43:42.893Z,15.84
2019-05-30T09:44:52.222Z,15.90
2019-05-30T09:46:11.512Z,15.93
2019-05-30T09:47:19.454Z,15.96
2019-05-30T09:48:28.307Z,15.92
2019-05-30T09:49:36.439Z,15.95
2019-05-30T09:50:46.686Z,16.01
2019-05-30T09:51:54.961Z,15.99
2019-05-30T09:53:04.148Z,15.97
2019-05-30T09:54:12.157Z,15.95
2019-05-30T09:55:22.442Z,15.94
2019-05-30T09:56:30.655Z,15.93
2019-05-30T09:57:39.469Z,15.94
2019-05-30T09:58:47.908Z,15.98
2019-05-30T09:59:55.983Z,16.02
2019-05-30T10:01:04.103Z,16.05
2019-05-30T10:02:13.009Z,16.07
2019-05-30T10:03:21.023Z,16.14
2019-05-30T10:04:29.777Z,16.18
2019-05-30T10:05:38.493Z,16.25
2019-05-30T10:06:48.447Z,16.25
2019-05-30T10:07:56.606Z,16.26
2019-05-30T10:09:06.849Z,16.31
2019-05-30T10:10:16.911Z,16.32
2019-05-30T10:11:25.854Z,16.37
2019-05-30T10:12:34.102Z,16.40
2019-05-30T10:13:42.515Z,16.43
2019-05-30T10:14:51.073Z,16.35
2019-05-30T10:15:59.524Z,16.33
2019-05-30T10:17:07.925Z,16.35
2019-05-30T10:18:16.901Z,16.37
2019-05-30T10:19:25.044Z,16.38
2019-05-30T10:20:33.938Z,16.43
2019-05-30T10:21:42.575Z,16.44
2019-05-30T10:22:53.657Z,16.47
2019-05-30T10:24:02.069Z,16.43
2019-05-30T10:25:11.901Z,16.47
2019-05-30T10:26:20.038Z,16.44
2019-05-30T10:27:28.989Z,16.46
2019-05-30T10:28:37.012Z,16.48
2019-05-30T10:29:47.293Z,16.48
2019-05-30T10:30:59.274Z,16.39
2019-05-30T10:32:06.592Z,16.39
2019-05-30T10:33:15.696Z,16.40
2019-05-30T10:34:25.063Z,16.39
2019-05-30T10:35:33.665Z,16.37
2019-05-30T10:36:44.698Z,16.40
2019-05-30T10:37:53.133Z,16.41
2019-05-30T10:39:01.637Z,16.39
2019-05-30T10:40:10.479Z,16.35
2019-05-30T10:41:19.322Z,16.34
2019-05-30T10:42:27.300Z,16.31
2019-05-30T10:43:35.947Z,16.30
2019-05-30T10:44:44.122Z,16.31
2019-05-30T10:45:53.543Z,16.26
2019-05-30T10:47:01.653Z,16.32
2019-05-30T10:48:10.498Z,16.35
2019-05-30T10:49:33.705Z,16.34
2019-05-30T10:50:29.424Z,16.36
2019-05-30T10:51:37.325Z,16.33
2019-05-30T10:52:47.184Z,16.31
2019-05-30T10:53:55.731Z,16.32
2019-05-30T10:55:06.205Z,16.26
2019-05-30T10:56:14.319Z,16.25
2019-05-30T10:57:23.374Z,16.26
2019-05-30T10:58:31.459Z,16.25
2019-05-30T10:59:40.355Z,16.24
2019-05-30T11:00:55.798Z,16.26
2019-05-30T11:02:05.480Z,16.27
2019-05-30T11:03:13.776Z,16.34
2019-05-30T11:04:22.728Z,16.28
2019-05-30T11:05:30.821Z,16.22
2019-05-30T11:07:11.117Z,16.22
2019-05-30T11:08:16.542Z,16.25
2019-05-30T11:09:29.954Z,16.24
2019-05-30T11:10:43.018Z,16.25
2019-05-30T11:11:52.851Z,16.26
2019-05-30T11:13:05.892Z,16.27
2019-05-30T11:14:11.245Z,16.24
2019-05-30T11:15:19.927Z,16.30
2019-05-30T11:16:28.936Z,16.32
2019-05-30T11:17:37.209Z,16.31
2019-05-30T11:18:47.531Z,16.31
2019-05-30T11:19:56.178Z,16.30
2019-05-30T11:21:05.515Z,16.35
2019-05-30T11:22:13.711Z,16.34
2019-05-30T11:23:22.540Z,16.34
2019-05-30T11:24:30.753Z,16.30
2019-05-30T11:25:40.043Z,16.32
2019-05-30T11:26:48.712Z,16.30
2019-05-30T11:27:58.925Z,16.33
2019-05-30T11:29:07.655Z,16.27
2019-05-30T11:30:18.007Z,16.32
2019-05-30T11:31:26.064Z,16.32
2019-05-30T11:32:34.839Z,16.28
2019-05-30T11:33:43.382Z,16.29
2019-05-30T11:34:53.035Z,16.28
2019-05-30T11:36:01.113Z,16.30
2019-05-30T11:37:18.655Z,16.28
2019-05-30T11:38:19.881Z,16.32
2019-05-30T11:39:28.882Z,16.26
2019-05-30T11:40:37.184Z,16.30
2019-05-30T11:41:46.346Z,16.32
2019-05-30T11:42:55.477Z,16.33
2019-05-30T11:44:04.383Z,16.25
2019-05-30T11:45:13.420Z,16.25
2019-05-30T11:46:23.159Z,16.28
2019-05-30T11:47:31.602Z,16.28
2019-05-30T11:48:40.547Z,16.35
2019-05-30T11:49:49.563Z,16.30
2019-05-30T11:50:58.377Z,16.31
2019-05-30T11:52:06.324Z,16.27
2019-05-30T11:53:15.467Z,16.25
2019-05-30T11:54:23.399Z,16.26
2019-05-30T11:55:32.830Z,16.27
2019-05-30T11:56:40.964Z,16.22
2019-05-30T11:57:50.236Z,16.19
2019-05-30T11:58:58.456Z,16.17
2019-05-30T12:00:10.883Z,16.14
2019-05-30T12:01:19.216Z,16.13
2019-05-30T12:02:28.078Z,16.17
2019-05-30T12:03:36.404Z,16.12
2019-05-30T12:04:45.015Z,16.16
2019-05-30T12:05:55.051Z,16.15
2019-05-30T12:07:04.198Z,16.13
2019-05-30T12:08:12.299Z,16.13
2019-05-30T12:09:21.417Z,16.12
2019-05-30T12:10:31.015Z,16.07
2019-05-30T12:11:39.634Z,16.07
2019-05-30T12:12:47.892Z,16.00
2019-05-30T12:13:57.423Z,15.98
2019-05-30T12:15:08.674Z,16.00
2019-05-30T12:16:17.049Z,15.91
2019-05-30T12:17:25.233Z,15.91
2019-05-30T12:18:34.199Z,15.86
2019-05-30T12:19:42.635Z,15.86
2019-05-30T12:20:52.070Z,15.84
2019-05-30T12:22:00.225Z,15.82
2019-05-30T12:23:08.737Z,15.81
2019-05-30T12:24:16.811Z,15.80
2019-05-30T12:25:25.796Z,15.76
2019-05-30T12:26:34.346Z,15.73
2019-05-30T12:27:43.363Z,15.69
2019-05-30T12:28:52.063Z,15.61
2019-05-30T12:30:02.552Z,15.57
2019-05-30T12:31:11.065Z,15.50
2019-05-30T12:32:20.262Z,15.47
2019-05-30T12:33:28.714Z,15.48
2019-05-30T12:34:37.662Z,15.49
2019-05-30T12:35:46.026Z,15.47
2019-05-30T12:36:56.419Z,15.43
2019-05-30T12:38:06.595Z,15.43
2019-05-30T12:39:15.296Z,15.44
2019-05-30T12:40:24.715Z,15.46
2019-05-30T12:41:33.634Z,15.37
2019-05-30T12:42:42.199Z,15.35
2019-05-30T12:43:51.383Z,15.30
2019-05-30T12:45:03.487Z,15.31
2019-05-30T12:46:10.577Z,15.30
2019-05-30T12:47:18.609Z,15.29
2019-05-30T12:48:27.730Z,15.28
2019-05-30T12:49:35.993Z,15.27
2019-05-30T12:50:44.858Z,15.22
2019-05-30T12:51:54.102Z,15.13
2019-05-30T12:53:03.015Z,15.08
2019-05-30T12:54:11.080Z,15.09
2019-05-30T12:55:20.542Z,15.07
2019-05-30T12:56:28.696Z,15.08
2019-05-30T12:57:37.589Z,15.04
2019-05-30T12:58:46.344Z,15.03
2019-05-30T12:59:54.985Z,15.02
2019-05-30T13:01:03.107Z,15.01
2019-05-30T13:02:11.931Z,14.99
2019-05-30T13:03:20.069Z,14.97
2019-05-30T13:04:28.968Z,14.94
2019-05-30T13:05:37.167Z,14.99
2019-05-30T13:06:46.558Z,14.95
2019-05-30T13:08:11.703Z,14.91
2019-05-30T13:09:07.348Z,14.84
2019-05-30T13:10:16.082Z,14.81
2019-05-30T13:11:25.319Z,14.79
2019-05-30T13:12:33.569Z,14.78
2019-05-30T13:13:42.578Z,14.77
2019-05-30T13:14:50.928Z,14.70
2019-05-30T13:16:01.836Z,14.71
2019-05-30T13:17:09.978Z,14.67
2019-05-30T13:18:18.890Z,14.70
2019-05-30T13:19:27.082Z,14.68
2019-05-30T13:20:36.127Z,14.64
2019-05-30T13:21:44.381Z,14.63
2019-05-30T13:22:53.748Z,14.63
2019-05-30T13:24:02.127Z,14.55
2019-05-30T13:25:17.318Z,14.54
2019-05-30T13:26:25.372Z,14.58
2019-05-30T13:27:34.261Z,14.55
2019-05-30T13:28:42.252Z,14.54
2019-05-30T13:29:51.176Z,14.56
2019-05-30T13:31:00.233Z,14.48
2019-05-30T13:32:09.307Z,14.49
2019-05-30T13:33:17.295Z,14.51
2019-05-30T13:34:26.363Z,14.49
2019-05-30T13:35:34.653Z,14.49
2019-05-30T13:36:43.483Z,14.52
2019-05-30T13:37:51.785Z,14.56
2019-05-30T13:39:01.177Z,14.62
2019-05-30T13:40:24.459Z,14.60
2019-05-30T13:41:22.615Z,14.59
2019-05-30T13:42:30.830Z,14.52
2019-05-30T13:43:40.033Z,14.46
2019-05-30T13:44:48.020Z,14.47
2019-05-30T13:45:58.033Z,14.41
2019-05-30T13:47:06.733Z,14.38
2019-05-30T13:48:15.618Z,14.43
2019-05-30T13:49:23.757Z,14.48
2019-05-30T13:50:32.674Z,14.39
2019-05-30T13:51:40.639Z,14.37
2019-05-30T13:52:49.867Z,14.43
2019-05-30T13:53:58.937Z,14.43
2019-05-30T13:55:10.296Z,14.38
2019-05-30T13:56:18.515Z,14.42
2019-05-30T13:57:27.323Z,14.52
2019-05-30T13:58:35.445Z,14.48
2019-05-30T13:59:44.490Z,14.47
2019-05-30T14:00:52.638Z,14.51
2019-05-30T14:02:02.090Z,14.49
2019-05-30T14:03:10.423Z,14.42
2019-05-30T14:04:19.276Z,14.43
2019-05-30T14:05:27.774Z,14.42
2019-05-30T14:06:36.584Z,14.43
2019-05-30T14:07:44.595Z,14.38
2019-05-30T14:08:53.801Z,14.34
2019-05-30T14:10:02.454Z,14.32
2019-05-30T14:11:11.466Z,14.32
2019-05-30T14:12:19.638Z,14.31
2019-05-30T14:13:28.303Z,14.31
2019-05-30T14:14:36.646Z,14.21
2019-05-30T14:15:45.682Z,14.17
2019-05-30T14:16:53.862Z,14.16
2019-05-30T14:18:07.269Z,14.18
2019-05-30T14:19:15.460Z,14.25
2019-05-30T14:20:25.009Z,14.37
2019-05-30T14:21:33.215Z,14.32
2019-05-30T14:22:42.072Z,14.31
2019-05-30T14:23:49.942Z,14.35
2019-05-30T14:24:58.765Z,14.38
2019-05-30T14:26:07.420Z,14.35
2019-05-30T14:27:16.514Z,14.28
2019-05-30T14:28:24.975Z,14.29
2019-05-30T14:29:34.787Z,14.24
2019-05-30T14:30:42.944Z,14.20
2019-05-30T14:31:51.854Z,14.30
2019-05-30T14:33:02.091Z,14.28
2019-05-30T14:34:12.160Z,14.30
2019-05-30T14:35:20.566Z,14.26
2019-05-30T14:36:29.564Z,14.11
2019-05-30T14:37:38.263Z,14.12
2019-05-30T14:38:58.002Z,13.97
2019-05-30T14:39:57.124Z,14.04
2019-05-30T14:41:06.935Z,14.02
2019-05-30T14:42:15.265Z,14.04
2019-05-30T14:43:24.221Z,14.02
2019-05-30T14:44:32.787Z,13.97
2019-05-30T14:45:41.473Z,13.94
2019-05-30T14:46:50.192Z,13.85
2019-05-30T14:47:59.854Z,13.87
2019-05-30T14:49:08.627Z,13.87
2019-05-30T14:50:18.914Z,13.86
2019-05-30T14:51:27.306Z,13.80
2019-05-30T14:52:35.764Z,13.85